Time;durP1;ratioP1;P1;durP2;ratioP2;P2;SDS_P1;SDS_P2;PMS_P1;PMS_P2;Temp;Humidity;BMP_temperature;BMP_pressure;BME280_temperature;BME280_humidity;BME280_pressure;Samples;Min_cycle;Max_cycle;Signal;HPM_P1;HPM_P2
2022/07/18 00:01:40;;;;;;;1.73;0.90;;;;;;;;;;5025919;28;20076;-52
2022/07/18 00:04:06;;;;;;;2.17;1.00;;;;;;;;;;5027207;28;20572;-52
2022/07/18 00:06:32;;;;;;;2.60;0.98;;;;;;;;;;5025486;28;20116;-51
2022/07/18 00:08:58;;;;;;;6.40;1.48;;;;;;;;;;5025505;28;20068;-50
2022/07/18 00:11:24;;;;;;;1.55;1.02;;;;;;;;;;5025913;28;20025;-52
2022/07/18 00:13:52;;;;;;;1.45;1.13;;;;;;;;;;5026176;28;20080;-52
2022/07/18 00:16:19;;;;;;;2.22;1.20;;;;;;;;;;5028407;28;20064;-51
2022/07/18 00:18:45;;;;;;;1.67;0.90;;;;;;;;;;5030925;28;20028;-46
2022/07/18 00:21:11;;;;;;;1.95;1.00;;;;;;;;;;5026293;28;20037;-51
2022/07/18 00:23:37;;;;;;;1.73;1.00;;;;;;;;;;5024464;28;20022;-51
2022/07/18 00:26:03;;;;;;;1.98;1.00;;;;;;;;;;5027922;28;20040;-52
2022/07/18 00:28:29;;;;;;;1.50;1.20;;;;;;;;;;5028627;28;20063;-51
2022/07/18 00:30:56;;;;;;;2.45;1.13;;;;;;;;;;5028077;28;20390;-52
2022/07/18 00:33:22;;;;;;;1.80;1.00;;;;;;;;;;5026225;28;20112;-52
2022/07/18 00:35:49;;;;;;;3.70;1.92;;;;;;;;;;5025163;28;20038;-50
2022/07/18 00:38:15;;;;;;;2.47;1.42;;;;;;;;;;5026272;28;20033;-52
2022/07/18 00:40:41;;;;;;;1.48;1.08;;;;;;;;;;5027056;28;20466;-51
2022/07/18 00:43:07;;;;;;;3.22;0.98;;;;;;;;;;5024119;28;20265;-51
2022/07/18 00:45:33;;;;;;;4.78;1.10;;;;;;;;;;5025762;28;20048;-53
2022/07/18 00:47:59;;;;;;;1.33;0.90;;;;;;;;;;5027022;28;20380;-53
2022/07/18 00:50:25;;;;;;;1.77;1.13;;;;;;;;;;5028434;28;20109;-52
2022/07/18 00:52:51;;;;;;;1.45;0.85;;;;;;;;;;5025564;28;20033;-52
2022/07/18 00:55:18;;;;;;;4.38;1.48;;;;;;;;;;5026268;28;20711;-53
2022/07/18 00:57:44;;;;;;;1.70;0.88;;;;;;;;;;5027432;28;20085;-53
2022/07/18 01:02:57;;;;;;;2.45;0.90;;;;;;;;;;5028096;28;20505;-47
2022/07/18 01:05:24;;;;;;;2.88;1.50;;;;;;;;;;5029686;28;20046;-52
2022/07/18 01:07:51;;;;;;;1.10;0.82;;;;;;;;;;5025392;28;20033;-53
2022/07/18 01:10:18;;;;;;;2.35;1.70;;;;;;;;;;5030002;28;20018;-52
2022/07/18 01:12:44;;;;;;;2.17;0.90;;;;;;;;;;5032004;28;20040;-48
2022/07/18 01:15:10;;;;;;;1.63;1.15;;;;;;;;;;5028436;28;20030;-51
2022/07/18 01:17:36;;;;;;;1.80;1.05;;;;;;;;;;5032041;28;20029;-48
2022/07/18 01:20:02;;;;;;;1.30;1.00;;;;;;;;;;5032287;28;20018;-49
2022/07/18 01:22:28;;;;;;;3.40;1.38;;;;;;;;;;5031879;28;20022;-49
2022/07/18 01:24:54;;;;;;;1.65;1.20;;;;;;;;;;5028164;28;20435;-51
2022/07/18 01:27:21;;;;;;;2.75;1.30;;;;;;;;;;5027069;28;20029;-52
2022/07/18 01:29:47;;;;;;;5.50;1.25;;;;;;;;;;5028949;28;20421;-47
2022/07/18 01:32:14;;;;;;;1.40;0.90;;;;;;;;;;5031276;28;20088;-53
2022/07/18 01:34:40;;;;;;;1.73;1.13;;;;;;;;;;5031671;28;20049;-51
2022/07/18 01:37:07;;;;;;;3.45;1.88;;;;;;;;;;5027115;28;20029;-52
2022/07/18 01:39:33;;;;;;;3.42;1.15;;;;;;;;;;5050920;28;20398;-53
2022/07/18 01:42:00;;;;;;;2.53;1.23;;;;;;;;;;5046765;28;20098;-48
2022/07/18 01:44:26;;;;;;;2.55;1.27;;;;;;;;;;5048821;28;20390;-49
2022/07/18 01:46:52;;;;;;;2.42;1.27;;;;;;;;;;5048393;28;20044;-50
2022/07/18 01:49:19;;;;;;;1.92;1.20;;;;;;;;;;5049329;28;20033;-52
2022/07/18 01:51:48;;;;;;;1.88;0.77;;;;;;;;;;5050443;28;20028;-52
2022/07/18 01:54:14;;;;;;;1.30;0.93;;;;;;;;;;5051561;28;20044;-50
2022/07/18 01:56:41;;;;;;;1.45;0.88;;;;;;;;;;5050841;28;20507;-52
2022/07/18 01:59:07;;;;;;;1.35;1.02;;;;;;;;;;5048374;28;20080;-48
2022/07/18 02:01:33;;;;;;;3.35;1.30;;;;;;;;;;5049535;28;20025;-49
2022/07/18 02:03:59;;;;;;;2.70;1.33;;;;;;;;;;5049777;28;20032;-53
2022/07/18 02:06:25;;;;;;;1.35;1.02;;;;;;;;;;5048773;28;20029;-49
2022/07/18 02:08:51;;;;;;;4.30;1.13;;;;;;;;;;5048207;28;20029;-47
2022/07/18 02:11:17;;;;;;;2.63;1.10;;;;;;;;;;5048594;28;20119;-50
2022/07/18 02:13:43;;;;;;;1.23;0.80;;;;;;;;;;5050221;28;20037;-53
2022/07/18 02:16:09;;;;;;;1.92;1.30;;;;;;;;;;5049009;28;20025;-53
2022/07/18 02:18:35;;;;;;;3.08;1.15;;;;;;;;;;5054416;28;20024;-49
2022/07/18 02:21:01;;;;;;;2.30;1.00;;;;;;;;;;5046890;28;20489;-49
2022/07/18 02:23:27;;;;;;;2.67;1.10;;;;;;;;;;5047430;28;20060;-51
2022/07/18 02:25:53;;;;;;;1.63;1.00;;;;;;;;;;5048460;28;20033;-46
2022/07/18 02:28:19;;;;;;;2.53;1.67;;;;;;;;;;5050624;28;20434;-50
2022/07/18 02:30:45;;;;;;;2.85;1.20;;;;;;;;;;5048395;28;20059;-53
2022/07/18 02:33:11;;;;;;;1.60;1.15;;;;;;;;;;5048376;28;20048;-53
2022/07/18 02:35:37;;;;;;;1.40;0.85;;;;;;;;;;5046866;28;20139;-53
2022/07/18 02:38:03;;;;;;;2.25;1.48;;;;;;;;;;5048642;28;20473;-53
2022/07/18 02:40:29;;;;;;;2.83;1.00;;;;;;;;;;5050271;28;20104;-53
2022/07/18 02:42:55;;;;;;;1.85;1.08;;;;;;;;;;5041155;28;20037;-49
2022/07/18 02:45:21;;;;;;;1.67;0.98;;;;;;;;;;5047216;28;20037;-51
2022/07/18 02:47:47;;;;;;;1.58;0.73;;;;;;;;;;5047135;28;20064;-52
2022/07/18 02:50:13;;;;;;;1.83;1.10;;;;;;;;;;5049108;28;20125;-54
2022/07/18 02:52:40;;;;;;;3.75;1.40;;;;;;;;;;5050307;28;20025;-52
2022/07/18 02:55:06;;;;;;;2.35;1.25;;;;;;;;;;5047229;28;20044;-50
2022/07/18 02:57:32;;;;;;;1.63;1.08;;;;;;;;;;5048299;28;20021;-52
2022/07/18 02:59:58;;;;;;;2.33;1.10;;;;;;;;;;5048726;28;20033;-55
2022/07/18 03:02:24;;;;;;;2.38;1.60;;;;;;;;;;5049544;28;20091;-54
2022/07/18 03:04:51;;;;;;;2.10;1.38;;;;;;;;;;5041490;28;20076;-47
2022/07/18 03:07:17;;;;;;;3.55;2.42;;;;;;;;;;5027005;28;20029;-55
2022/07/18 03:09:43;;;;;;;3.65;1.80;;;;;;;;;;5028782;28;20025;-54
2022/07/18 03:12:09;;;;;;;4.55;2.00;;;;;;;;;;5027439;28;20467;-55
2022/07/18 03:14:35;;;;;;;3.85;1.85;;;;;;;;;;5028613;28;20018;-55
2022/07/18 03:17:01;;;;;;;7.63;1.80;;;;;;;;;;5027115;28;20478;-52
2022/07/18 03:19:27;;;;;;;3.20;1.77;;;;;;;;;;5029815;28;20093;-55
2022/07/18 03:21:53;;;;;;;2.75;1.60;;;;;;;;;;5027282;28;20033;-52
2022/07/18 03:24:19;;;;;;;3.33;1.90;;;;;;;;;;5028690;28;20100;-55
2022/07/18 03:26:45;;;;;;;2.70;1.50;;;;;;;;;;5028044;28;20064;-50
2022/07/18 03:29:12;;;;;;;3.30;2.10;;;;;;;;;;5026325;28;20017;-53
2022/07/18 03:31:38;;;;;;;3.20;1.50;;;;;;;;;;5027767;28;20439;-53
2022/07/18 03:34:04;;;;;;;2.92;1.70;;;;;;;;;;5027896;28;20049;-51
2022/07/18 03:36:30;;;;;;;2.42;1.67;;;;;;;;;;5028488;28;20056;-54
2022/07/18 03:38:56;;;;;;;2.08;1.40;;;;;;;;;;5027478;28;20028;-50
2022/07/18 03:41:22;;;;;;;2.85;1.30;;;;;;;;;;5026281;28;20025;-51
2022/07/18 03:43:48;;;;;;;2.42;1.65;;;;;;;;;;5027001;28;20375;-52
2022/07/18 03:46:14;;;;;;;1.85;1.13;;;;;;;;;;5026361;28;20080;-50
2022/07/18 03:48:40;;;;;;;2.65;1.17;;;;;;;;;;5029305;28;20024;-55
2022/07/18 03:51:06;;;;;;;3.90;1.20;;;;;;;;;;5026971;28;20025;-51
2022/07/18 03:53:32;;;;;;;4.68;1.55;;;;;;;;;;5022006;28;20374;-53
2022/07/18 03:55:59;;;;;;;2.88;1.42;;;;;;;;;;5019345;28;20116;-51
2022/07/18 03:58:25;;;;;;;3.45;1.20;;;;;;;;;;5028650;28;20360;-54
2022/07/18 04:00:51;;;;;;;2.35;1.48;;;;;;;;;;5028609;28;20025;-53
2022/07/18 04:03:17;;;;;;;3.03;1.33;;;;;;;;;;5025978;28;20106;-50
2022/07/18 04:05:44;;;;;;;1.67;1.10;;;;;;;;;;5038462;28;20050;-52
2022/07/18 04:08:10;;;;;;;2.35;1.20;;;;;;;;;;5047667;28;20049;-52
2022/07/18 04:10:39;;;;;;;2.65;1.15;;;;;;;;;;5048862;28;20096;-54
2022/07/18 04:13:06;;;;;;;1.65;1.08;;;;;;;;;;5046588;28;20064;-51
2022/07/18 04:15:32;;;;;;;1.70;1.00;;;;;;;;;;5047166;28;20029;-52
2022/07/18 04:17:58;;;;;;;1.85;1.02;;;;;;;;;;5045687;28;20473;-51
2022/07/18 04:20:24;;;;;;;2.50;1.15;;;;;;;;;;5054113;28;20484;-51
2022/07/18 04:22:53;;;;;;;1.88;1.08;;;;;;;;;;5046954;28;20491;-53
2022/07/18 04:25:20;;;;;;;1.77;1.20;;;;;;;;;;5044137;28;20029;-50
2022/07/18 04:27:46;;;;;;;2.38;1.20;;;;;;;;;;5037656;28;20025;-54
2022/07/18 04:30:12;;;;;;;2.75;1.35;;;;;;;;;;5048031;28;20478;-49
2022/07/18 04:32:39;;;;;;;1.83;1.35;;;;;;;;;;5046413;28;20029;-50
2022/07/18 04:35:05;;;;;;;4.38;1.38;;;;;;;;;;5045608;28;20036;-52
2022/07/18 04:37:32;;;;;;;1.35;1.10;;;;;;;;;;5045750;28;20079;-51
2022/07/18 04:39:58;;;;;;;6.15;1.40;;;;;;;;;;5051076;28;20030;-50
2022/07/18 04:42:24;;;;;;;4.00;1.52;;;;;;;;;;5052381;28;20029;-55
2022/07/18 04:44:50;;;;;;;2.17;1.13;;;;;;;;;;5050312;28;20033;-53
2022/07/18 04:47:16;;;;;;;2.78;1.58;;;;;;;;;;5041358;28;20029;-54
2022/07/18 04:49:42;;;;;;;1.75;1.15;;;;;;;;;;5049190;28;20463;-53
2022/07/18 04:52:08;;;;;;;4.00;1.30;;;;;;;;;;5043078;28;20033;-55
2022/07/18 04:54:34;;;;;;;2.00;1.13;;;;;;;;;;5052482;28;20087;-55
2022/07/18 04:57:00;;;;;;;1.95;1.30;;;;;;;;;;5050765;28;20079;-52
2022/07/18 04:59:26;;;;;;;1.85;1.00;;;;;;;;;;5050281;28;20033;-50
2022/07/18 05:01:52;;;;;;;2.47;1.25;;;;;;;;;;5040791;28;20034;-53
2022/07/18 05:04:18;;;;;;;2.60;1.30;;;;;;;;;;5047031;28;20035;-53
2022/07/18 05:06:44;;;;;;;2.70;1.20;;;;;;;;;;5030183;28;20433;-53
2022/07/18 05:09:10;;;;;;;2.58;1.27;;;;;;;;;;5032246;28;20031;-51
2022/07/18 05:11:36;;;;;;;4.22;1.42;;;;;;;;;;5028139;28;20025;-54
2022/07/18 05:14:02;;;;;;;2.78;1.45;;;;;;;;;;5030986;28;20022;-54
2022/07/18 05:16:28;;;;;;;3.08;1.35;;;;;;;;;;5016121;28;20447;-54
2022/07/18 05:18:54;;;;;;;2.58;1.52;;;;;;;;;;5031798;28;20101;-49
2022/07/18 05:21:20;;;;;;;3.15;1.63;;;;;;;;;;5029264;28;20109;-53
2022/07/18 05:23:46;;;;;;;3.63;1.08;;;;;;;;;;5030931;28;20466;-55
2022/07/18 05:26:13;;;;;;;2.33;1.23;;;;;;;;;;5031535;28;20069;-55
2022/07/18 05:28:39;;;;;;;2.53;1.55;;;;;;;;;;5030190;28;20084;-55
2022/07/18 05:31:05;;;;;;;2.40;1.42;;;;;;;;;;5029944;28;20030;-54
2022/07/18 05:33:31;;;;;;;3.65;1.60;;;;;;;;;;5030830;28;20017;-52
2022/07/18 05:35:57;;;;;;;5.07;1.98;;;;;;;;;;5030440;28;20048;-51
2022/07/18 05:38:23;;;;;;;7.53;2.40;;;;;;;;;;5025226;28;20053;-53
2022/07/18 05:40:49;;;;;;;2.50;1.60;;;;;;;;;;5029401;28;20025;-53
2022/07/18 05:43:15;;;;;;;5.25;1.88;;;;;;;;;;5026307;28;20032;-54
2022/07/18 05:45:41;;;;;;;4.00;1.90;;;;;;;;;;5031059;28;20033;-54
2022/07/18 05:48:07;;;;;;;3.35;1.70;;;;;;;;;;5029297;28;20470;-55
2022/07/18 05:50:33;;;;;;;3.13;1.67;;;;;;;;;;5028178;28;20498;-52
2022/07/18 05:52:59;;;;;;;3.17;1.60;;;;;;;;;;5030219;28;20041;-47
2022/07/18 05:55:25;;;;;;;3.85;1.48;;;;;;;;;;5029361;28;20048;-55
2022/07/18 05:57:52;;;;;;;3.63;2.00;;;;;;;;;;5030118;28;20454;-51
2022/07/18 06:00:18;;;;;;;3.65;1.38;;;;;;;;;;5025845;28;20057;-51
2022/07/18 06:02:44;;;;;;;3.85;1.90;;;;;;;;;;5028384;28;20037;-49
2022/07/18 06:05:12;;;;;;;2.83;1.70;;;;;;;;;;5027191;28;20049;-53
2022/07/18 06:07:38;;;;;;;6.10;1.70;;;;;;;;;;5028454;28;20516;-53
2022/07/18 06:10:04;;;;;;;3.63;1.40;;;;;;;;;;5029773;28;20026;-53
2022/07/18 06:12:31;;;;;;;3.63;1.60;;;;;;;;;;5028795;28;20087;-53
2022/07/18 06:14:57;;;;;;;4.47;1.73;;;;;;;;;;5027063;28;20032;-51
2022/07/18 06:17:23;;;;;;;3.38;1.48;;;;;;;;;;5025934;28;20030;-51
2022/07/18 06:19:49;;;;;;;3.50;1.63;;;;;;;;;;5029673;28;20028;-51
2022/07/18 06:22:15;;;;;;;5.13;1.85;;;;;;;;;;5024399;28;20375;-53
2022/07/18 06:24:41;;;;;;;3.10;1.50;;;;;;;;;;5031301;28;20026;-50
2022/07/18 06:27:07;;;;;;;2.55;1.50;;;;;;;;;;5024479;28;20029;-53
2022/07/18 06:29:33;;;;;;;2.55;1.65;;;;;;;;;;5025874;28;20100;-54
2022/07/18 06:32:00;;;;;;;3.47;1.65;;;;;;;;;;5029472;28;20491;-49
2022/07/18 06:34:26;;;;;;;7.57;1.63;;;;;;;;;;5028762;28;20079;-48
2022/07/18 06:36:52;;;;;;;3.38;1.30;;;;;;;;;;5028219;28;20033;-52
2022/07/18 06:39:18;;;;;;;3.53;1.70;;;;;;;;;;5032090;28;20528;-51
2022/07/18 06:41:44;;;;;;;2.55;1.50;;;;;;;;;;5030990;28;20051;-52
2022/07/18 06:44:10;;;;;;;4.68;1.75;;;;;;;;;;5032479;28;20036;-53
2022/07/18 06:46:37;;;;;;;2.90;1.40;;;;;;;;;;5032626;28;20125;-51
2022/07/18 06:49:04;;;;;;;3.17;1.40;;;;;;;;;;5031453;28;20040;-53
2022/07/18 06:51:30;;;;;;;3.47;1.70;;;;;;;;;;5032598;28;20033;-53
2022/07/18 06:53:56;;;;;;;5.32;1.80;;;;;;;;;;5032410;28;20029;-53
2022/07/18 06:56:22;;;;;;;4.35;1.95;;;;;;;;;;5031664;28;20390;-53
2022/07/18 06:58:49;;;;;;;5.50;1.63;;;;;;;;;;5031750;28;20112;-52
2022/07/18 07:01:16;;;;;;;3.15;1.83;;;;;;;;;;5030444;28;20087;-53
2022/07/18 07:03:42;;;;;;;5.35;1.88;;;;;;;;;;5032463;28;20032;-53
2022/07/18 07:06:08;;;;;;;5.57;1.67;;;;;;;;;;5030723;28;20067;-52
2022/07/18 07:08:34;;;;;;;5.75;1.70;;;;;;;;;;5033874;28;20021;-52
2022/07/18 07:11:01;;;;;;;3.67;1.98;;;;;;;;;;5032198;28;20087;-46
2022/07/18 07:13:27;;;;;;;3.63;1.92;;;;;;;;;;5031832;28;20045;-52
2022/07/18 07:15:53;;;;;;;3.38;2.22;;;;;;;;;;5027326;28;20083;-53
2022/07/18 07:18:19;;;;;;;4.72;2.05;;;;;;;;;;5031008;28;20037;-49
2022/07/18 07:20:46;;;;;;;5.55;2.13;;;;;;;;;;5032704;28;20036;-50
2022/07/18 07:23:12;;;;;;;5.13;2.03;;;;;;;;;;5030133;28;20381;-52
2022/07/18 07:25:38;;;;;;;3.85;2.05;;;;;;;;;;5031691;28;20125;-51
2022/07/18 07:28:05;;;;;;;4.05;2.25;;;;;;;;;;5030749;28;20037;-55
2022/07/18 07:30:31;;;;;;;2.05;1.60;;;;;;;;;;5034176;28;20033;-47
2022/07/18 07:32:57;;;;;;;6.00;1.70;;;;;;;;;;5031359;28;20025;-48
2022/07/18 07:35:23;;;;;;;5.60;1.60;;;;;;;;;;5029189;28;20895;-51
2022/07/18 07:37:53;;;;;;;3.15;1.70;;;;;;;;;;5031472;28;20087;-52
2022/07/18 07:40:19;;;;;;;3.95;1.48;;;;;;;;;;5030635;28;20051;-52
2022/07/18 07:42:46;;;;;;;3.67;1.58;;;;;;;;;;5031092;28;20021;-53
2022/07/18 07:45:13;;;;;;;3.63;2.20;;;;;;;;;;5030178;28;20441;-54
2022/07/18 07:47:39;;;;;;;2.67;1.90;;;;;;;;;;5031091;28;20482;-52
2022/07/18 07:50:07;;;;;;;4.90;1.65;;;;;;;;;;5030056;28;20076;-49
2022/07/18 07:52:33;;;;;;;3.95;2.72;;;;;;;;;;5028107;28;20044;-51
2022/07/18 07:54:59;;;;;;;2.55;1.60;;;;;;;;;;5023840;28;20025;-47
2022/07/18 07:57:25;;;;;;;2.25;1.50;;;;;;;;;;5030688;28;20030;-53
2022/07/18 07:59:52;;;;;;;3.47;1.70;;;;;;;;;;5030889;28;20389;-52
2022/07/18 08:02:18;;;;;;;3.05;1.65;;;;;;;;;;5030382;28;20489;-53
2022/07/18 08:04:44;;;;;;;2.95;1.60;;;;;;;;;;5030954;28;20096;-52
2022/07/18 08:07:11;;;;;;;5.75;2.22;;;;;;;;;;5029893;28;20130;-51
2022/07/18 08:09:37;;;;;;;5.72;1.70;;;;;;;;;;5029725;28;20032;-50
2022/07/18 08:12:03;;;;;;;2.58;1.67;;;;;;;;;;5029692;28;20025;-47
2022/07/18 08:14:29;;;;;;;4.65;1.60;;;;;;;;;;5030514;28;20100;-51
2022/07/18 08:16:55;;;;;;;3.85;1.60;;;;;;;;;;5030196;28;20518;-51
2022/07/18 08:19:21;;;;;;;4.97;1.80;;;;;;;;;;5029552;28;20024;-50
2022/07/18 08:21:47;;;;;;;2.80;1.58;;;;;;;;;;5030436;28;20028;-49
2022/07/18 08:24:13;;;;;;;4.75;2.45;;;;;;;;;;5028795;28;20029;-50
2022/07/18 08:26:39;;;;;;;2.83;1.80;;;;;;;;;;5029419;28;20127;-52
2022/07/18 08:29:06;;;;;;;3.50;1.67;;;;;;;;;;5030047;28;20030;-49
2022/07/18 08:31:32;;;;;;;3.67;1.75;;;;;;;;;;5034954;28;20446;-50
2022/07/18 08:33:58;;;;;;;3.75;1.58;;;;;;;;;;5030743;28;20099;-52
2022/07/18 08:36:24;;;;;;;2.92;1.80;;;;;;;;;;5029815;28;20029;-49
2022/07/18 08:38:50;;;;;;;2.08;1.55;;;;;;;;;;5030540;28;20054;-48
2022/07/18 08:41:21;;;;;;;5.22;2.22;;;;;;;;;;5029670;28;20033;-50
2022/07/18 08:43:47;;;;;;;4.80;1.90;;;;;;;;;;5031166;28;20422;-53
2022/07/18 08:46:13;;;;;;;2.40;1.73;;;;;;;;;;5028383;28;20033;-50
2022/07/18 08:48:42;;;;;;;2.53;1.60;;;;;;;;;;5027314;28;20021;-48
2022/07/18 08:51:09;;;;;;;3.55;1.48;;;;;;;;;;5021403;28;20033;-50
2022/07/18 08:53:37;;;;;;;2.75;1.30;;;;;;;;;;5029860;28;20026;-50
2022/07/18 08:56:03;;;;;;;2.55;1.30;;;;;;;;;;5029978;28;20033;-47
2022/07/18 08:58:29;;;;;;;2.30;1.40;;;;;;;;;;5030115;28;20101;-52
2022/07/18 09:00:57;;;;;;;4.97;1.58;;;;;;;;;;5029517;28;20510;-49
2022/07/18 09:03:24;;;;;;;2.08;1.60;;;;;;;;;;5029405;28;20022;-48
2022/07/18 09:06:03;;;;;;;3.13;1.80;;;;;;;;;;5044738;28;20414;-50
2022/07/18 09:08:29;;;;;;;2.38;1.60;;;;;;;;;;5050308;28;20024;-52
2022/07/18 09:10:56;;;;;;;3.00;1.45;;;;;;;;;;5048701;28;20029;-53
2022/07/18 09:13:24;;;;;;;3.75;1.65;;;;;;;;;;5049695;28;20024;-50
2022/07/18 09:15:58;;;;;;;2.10;1.60;;;;;;;;;;5050285;28;20351;-50
2022/07/18 09:18:29;;;;;;;2.88;1.50;;;;;;;;;;5048669;28;20021;-50
2022/07/18 09:20:58;;;;;;;2.65;1.63;;;;;;;;;;5049709;28;20025;-49
2022/07/18 09:23:28;;;;;;;3.95;1.52;;;;;;;;;;5049161;28;20017;-49
2022/07/18 09:25:54;;;;;;;2.85;1.55;;;;;;;;;;5051841;28;20033;-49
2022/07/18 09:28:20;;;;;;;5.65;2.20;;;;;;;;;;5053036;28;20480;-51
2022/07/18 09:30:46;;;;;;;2.20;1.60;;;;;;;;;;5060134;28;20024;-52
2022/07/18 09:33:12;;;;;;;2.80;1.23;;;;;;;;;;5052775;28;20029;-50
2022/07/18 09:35:52;;;;;;;1.98;1.40;;;;;;;;;;5053362;28;20035;-53
2022/07/18 09:38:21;;;;;;;2.42;1.70;;;;;;;;;;5048339;28;20366;-49
2022/07/18 09:40:49;;;;;;;2.00;1.30;;;;;;;;;;5053630;28;20041;-54
2022/07/18 09:43:16;;;;;;;2.53;1.33;;;;;;;;;;5052409;28;20075;-49
2022/07/18 09:45:43;;;;;;;2.97;1.38;;;;;;;;;;5053115;28;20044;-49
2022/07/18 09:48:11;;;;;;;1.63;1.38;;;;;;;;;;5048357;28;20504;-50
2022/07/18 09:50:49;;;;;;;4.03;1.70;;;;;;;;;;5054014;28;20021;-50
2022/07/18 09:53:20;;;;;;;1.30;1.10;;;;;;;;;;5050169;28;20029;-53
2022/07/18 09:55:48;;;;;;;2.72;1.50;;;;;;;;;;5054471;28;20032;-51
2022/07/18 09:58:16;;;;;;;1.58;1.00;;;;;;;;;;5052546;28;20052;-49
2022/07/18 10:00:42;;;;;;;3.65;1.40;;;;;;;;;;5052965;28;20056;-52
2022/07/18 10:03:08;;;;;;;2.08;1.20;;;;;;;;;;5050941;28;20032;-49
2022/07/18 10:05:36;;;;;;;1.70;1.30;;;;;;;;;;5052672;28;20045;-52
2022/07/18 10:08:04;;;;;;;2.03;1.30;;;;;;;;;;5052599;28;20028;-45
2022/07/18 10:10:30;;;;;;;4.88;1.30;;;;;;;;;;5052397;28;20021;-48
2022/07/18 10:12:57;;;;;;;2.38;1.33;;;;;;;;;;5052512;28;20020;-51
2022/07/18 10:15:24;;;;;;;2.17;1.30;;;;;;;;;;5051877;28;20049;-52
2022/07/18 10:17:50;;;;;;;2.03;1.40;;;;;;;;;;5034448;28;20057;-49
2022/07/18 10:20:17;;;;;;;2.17;1.30;;;;;;;;;;5051609;28;20056;-52
2022/07/18 10:22:44;;;;;;;3.63;1.33;;;;;;;;;;5052111;28;20036;-53
2022/07/18 10:25:11;;;;;;;2.97;2.03;;;;;;;;;;5054837;28;20029;-51
2022/07/18 10:27:50;;;;;;;3.90;1.35;;;;;;;;;;5052444;28;20095;-49
2022/07/18 10:30:16;;;;;;;1.98;1.17;;;;;;;;;;5048496;28;20024;-52
2022/07/18 10:32:43;;;;;;;2.53;1.08;;;;;;;;;;5052533;28;20029;-51
2022/07/18 10:35:12;;;;;;;1.98;1.27;;;;;;;;;;5051091;28;20028;-50
2022/07/18 10:37:39;;;;;;;1.67;1.02;;;;;;;;;;5052338;28;20066;-50
2022/07/18 10:40:24;;;;;;;1.40;1.10;;;;;;;;;;5052246;28;20036;-46
2022/07/18 10:43:09;;;;;;;2.00;1.25;;;;;;;;;;5049023;28;20029;-50
2022/07/18 10:45:47;;;;;;;2.15;1.30;;;;;;;;;;5047926;28;20148;-49
2022/07/18 10:48:32;;;;;;;1.35;1.10;;;;;;;;;;5049673;28;20029;-49
2022/07/18 10:51:01;;;;;;;1.45;1.10;;;;;;;;;;5049569;28;20037;-49
2022/07/18 10:53:46;;;;;;;3.20;1.17;;;;;;;;;;5047172;28;20025;-52
2022/07/18 10:56:12;;;;;;;1.50;1.00;;;;;;;;;;5051155;28;20021;-49
2022/07/18 10:58:41;;;;;;;1.83;1.20;;;;;;;;;;5057223;28;20031;-49
2022/07/18 11:01:09;;;;;;;2.22;0.98;;;;;;;;;;5058422;28;20573;-46
2022/07/18 11:03:35;;;;;;;1.40;1.10;;;;;;;;;;5051195;28;20040;-49
2022/07/18 11:06:02;;;;;;;1.73;1.20;;;;;;;;;;5035960;28;20081;-49
2022/07/18 11:08:31;;;;;;;1.90;1.25;;;;;;;;;;5030556;28;20069;-51
2022/07/18 11:11:03;;;;;;;1.65;1.10;;;;;;;;;;5038687;28;20032;-49
2022/07/18 11:13:31;;;;;;;2.40;1.25;;;;;;;;;;5022244;28;20049;-51
2022/07/18 11:16:06;;;;;;;1.58;1.10;;;;;;;;;;5031181;28;20546;-49
2022/07/18 11:18:33;;;;;;;1.33;0.88;;;;;;;;;;5031728;28;20100;-53
2022/07/18 11:20:59;;;;;;;1.42;1.00;;;;;;;;;;5030983;28;20072;-51
2022/07/18 11:23:26;;;;;;;3.30;1.80;;;;;;;;;;5030486;28;20165;-50
2022/07/18 11:25:54;;;;;;;3.90;1.10;;;;;;;;;;5031302;28;20128;-54
2022/07/18 11:28:20;;;;;;;2.65;1.25;;;;;;;;;;5030502;28;20433;-50
2022/07/18 11:30:58;;;;;;;1.20;1.00;;;;;;;;;;5031256;28;20045;-52
2022/07/18 11:33:26;;;;;;;1.45;1.10;;;;;;;;;;5029383;28;20589;-49
2022/07/18 11:35:52;;;;;;;2.05;1.15;;;;;;;;;;5030897;28;20032;-50
2022/07/18 11:38:19;;;;;;;1.00;0.82;;;;;;;;;;5030478;28;20026;-49
2022/07/18 11:40:48;;;;;;;1.92;1.15;;;;;;;;;;5030880;28;20462;-49
2022/07/18 11:43:20;;;;;;;1.63;1.15;;;;;;;;;;5030012;28;20037;-49
2022/07/18 11:45:46;;;;;;;1.88;0.98;;;;;;;;;;5030899;28;20061;-49
2022/07/18 11:48:11;;;;;;;1.50;1.10;;;;;;;;;;5029642;28;20489;-50
2022/07/18 11:50:40;;;;;;;1.98;0.90;;;;;;;;;;5031190;28;20116;-49
2022/07/18 11:53:06;;;;;;;2.13;1.13;;;;;;;;;;5030352;28;20052;-46
2022/07/18 11:55:33;;;;;;;1.88;1.13;;;;;;;;;;5030335;28;20026;-49
2022/07/18 11:58:13;;;;;;;1.23;1.05;;;;;;;;;;5030548;28;20018;-54
2022/07/18 12:00:39;;;;;;;1.77;0.90;;;;;;;;;;5028356;28;20091;-49
2022/07/18 12:03:15;;;;;;;1.70;1.08;;;;;;;;;;5029606;28;20022;-46
2022/07/18 12:05:41;;;;;;;0.98;0.85;;;;;;;;;;5042695;28;20122;-48
2022/07/18 12:08:27;;;;;;;1.60;1.10;;;;;;;;;;5048190;28;20486;-45
2022/07/18 12:11:08;;;;;;;3.35;1.00;;;;;;;;;;5048280;28;20477;-52
2022/07/18 12:13:48;;;;;;;1.20;0.90;;;;;;;;;;5050248;28;20108;-52
2022/07/18 12:16:23;;;;;;;2.83;0.90;;;;;;;;;;5047523;28;20345;-49
2022/07/18 12:18:53;;;;;;;1.23;0.90;;;;;;;;;;5050244;28;20059;-49
2022/07/18 12:21:19;;;;;;;1.27;1.08;;;;;;;;;;5049438;28;20081;-51
2022/07/18 12:23:45;;;;;;;1.23;1.10;;;;;;;;;;5050381;28;20516;-49
2022/07/18 12:26:31;;;;;;;1.90;0.95;;;;;;;;;;5049097;28;20024;-51
2022/07/18 12:29:04;;;;;;;1.17;0.80;;;;;;;;;;5049440;28;20597;-49
2022/07/18 12:31:44;;;;;;;2.22;1.00;;;;;;;;;;5049776;28;20096;-52
2022/07/18 12:34:11;;;;;;;1.50;0.90;;;;;;;;;;5047711;28;20025;-48
2022/07/18 12:36:57;;;;;;;1.55;1.10;;;;;;;;;;5050026;28;20536;-50
2022/07/18 12:39:31;;;;;;;1.30;1.15;;;;;;;;;;5049576;28;20098;-49
2022/07/18 12:41:57;;;;;;;1.33;0.90;;;;;;;;;;5032218;28;20021;-52
2022/07/18 12:44:24;;;;;;;1.92;0.75;;;;;;;;;;5049253;28;20435;-52
2022/07/18 12:46:50;;;;;;;0.93;0.82;;;;;;;;;;5050339;28;20080;-51
2022/07/18 12:49:16;;;;;;;0.73;0.73;;;;;;;;;;5049372;28;20404;-52
2022/07/18 12:51:42;;;;;;;1.27;0.70;;;;;;;;;;5050626;28;20104;-50
2022/07/18 12:54:08;;;;;;;1.23;0.98;;;;;;;;;;5050020;28;20040;-47
2022/07/18 12:56:34;;;;;;;1.15;0.90;;;;;;;;;;5032659;28;20417;-52
2022/07/18 12:59:01;;;;;;;1.60;0.93;;;;;;;;;;5050798;28;20478;-52
2022/07/18 13:01:27;;;;;;;0.95;0.80;;;;;;;;;;5052869;28;20021;-51
2022/07/18 13:03:53;;;;;;;1.05;0.73;;;;;;;;;;5063536;28;20463;-53
2022/07/18 13:06:19;;;;;;;0.95;0.80;;;;;;;;;;5035388;28;20054;-47
2022/07/18 13:08:45;;;;;;;5.95;1.05;;;;;;;;;;5032423;28;20459;-47
2022/07/18 13:11:11;;;;;;;1.35;0.90;;;;;;;;;;5032976;28;20390;-49
2022/07/18 13:13:37;;;;;;;1.38;0.85;;;;;;;;;;5034122;28;20026;-52
2022/07/18 13:16:03;;;;;;;1.00;0.90;;;;;;;;;;5033313;28;20033;-52
2022/07/18 13:18:29;;;;;;;1.80;0.93;;;;;;;;;;5033464;28;20021;-52
2022/07/18 13:20:55;;;;;;;1.33;1.00;;;;;;;;;;5034359;28;20376;-48
2022/07/18 13:23:21;;;;;;;2.22;1.60;;;;;;;;;;5033417;28;20049;-49
2022/07/18 13:25:47;;;;;;;1.55;1.00;;;;;;;;;;5033940;28;20061;-50
2022/07/18 13:28:13;;;;;;;0.80;0.80;;;;;;;;;;5033455;28;20029;-49
2022/07/18 13:30:40;;;;;;;1.20;0.90;;;;;;;;;;5035029;28;20025;-51
2022/07/18 13:33:06;;;;;;;1.52;0.82;;;;;;;;;;5039981;28;20393;-46
2022/07/18 13:35:32;;;;;;;1.00;0.88;;;;;;;;;;5033745;28;20506;-48
2022/07/18 13:37:58;;;;;;;1.02;0.82;;;;;;;;;;5034077;28;20108;-52
2022/07/18 13:40:24;;;;;;;0.80;0.75;;;;;;;;;;5032914;28;20028;-49
2022/07/18 13:42:50;;;;;;;1.15;0.90;;;;;;;;;;5033380;28;20025;-50
2022/07/18 13:45:16;;;;;;;1.08;0.90;;;;;;;;;;5031846;28;20414;-48
2022/07/18 13:47:43;;;;;;;1.25;0.75;;;;;;;;;;5033416;28;20108;-50
2022/07/18 13:50:10;;;;;;;1.23;0.90;;;;;;;;;;5014888;28;20429;-46
2022/07/18 13:52:36;;;;;;;1.30;1.20;;;;;;;;;;5032599;28;20411;-47
2022/07/18 13:55:02;;;;;;;1.42;0.85;;;;;;;;;;5031347;28;20052;-50
2022/07/18 13:57:28;;;;;;;1.08;0.70;;;;;;;;;;5032619;28;20025;-52
2022/07/18 13:59:54;;;;;;;1.67;0.82;;;;;;;;;;5029251;28;20057;-49
2022/07/18 14:02:20;;;;;;;4.15;1.00;;;;;;;;;;5014369;28;20037;-48
2022/07/18 14:04:46;;;;;;;0.68;0.57;;;;;;;;;;5032482;28;20482;-51
2022/07/18 14:07:17;;;;;;;1.90;0.95;;;;;;;;;;5052201;28;20078;-51
2022/07/18 14:09:43;;;;;;;2.58;0.90;;;;;;;;;;5052999;28;20017;-49
2022/07/18 14:12:09;;;;;;;1.20;0.82;;;;;;;;;;5051783;28;20059;-46
2022/07/18 14:14:35;;;;;;;1.45;1.08;;;;;;;;;;5052862;28;20021;-51
2022/07/18 14:17:01;;;;;;;2.25;0.70;;;;;;;;;;5051557;28;20504;-53
2022/07/18 14:19:27;;;;;;;6.82;1.50;;;;;;;;;;5050990;28;20025;-52
2022/07/18 14:21:53;;;;;;;1.35;1.00;;;;;;;;;;5053407;28;20036;-50
2022/07/18 14:24:19;;;;;;;2.03;0.90;;;;;;;;;;5051205;28;20459;-50
2022/07/18 14:26:45;;;;;;;2.35;1.52;;;;;;;;;;5051792;28;20041;-49
2022/07/18 14:29:11;;;;;;;1.25;0.80;;;;;;;;;;5052119;28;20028;-47
2022/07/18 14:31:37;;;;;;;1.48;1.00;;;;;;;;;;5051775;28;20021;-52
2022/07/18 14:34:03;;;;;;;0.90;0.80;;;;;;;;;;5052471;28;20025;-51
2022/07/18 14:36:30;;;;;;;1.38;0.77;;;;;;;;;;5051487;28;20059;-50
2022/07/18 14:38:56;;;;;;;1.10;0.85;;;;;;;;;;5052144;28;20083;-52
2022/07/18 14:41:22;;;;;;;2.08;0.88;;;;;;;;;;5051842;28;20021;-49
2022/07/18 14:43:49;;;;;;;1.33;0.82;;;;;;;;;;5052110;28;20087;-49
2022/07/18 14:46:15;;;;;;;3.28;0.93;;;;;;;;;;5051081;28;20037;-51